createdAt,value
2018-09-24T00:01:29.761Z,14.80
2018-09-24T00:03:58.348Z,13.87
2018-09-24T00:06:28.863Z,13.10
2018-09-24T00:08:58.395Z,13.87
2018-09-24T00:11:26.975Z,13.20
2018-09-24T00:13:56.579Z,14.03
2018-09-24T00:16:27.284Z,13.03
2018-09-24T00:18:56.999Z,12.43
2018-09-24T00:21:26.671Z,12.80
2018-09-24T00:23:55.360Z,12.47
2018-09-24T00:26:25.103Z,13.37
2018-09-24T00:28:53.954Z,13.03
2018-09-24T00:31:24.467Z,13.87
2018-09-24T00:33:54.045Z,13.67
2018-09-24T00:36:35.746Z,13.90
2018-09-24T00:39:09.018Z,13.67
2018-09-24T00:41:38.984Z,13.37
2018-09-24T00:44:08.541Z,13.07
2018-09-24T00:46:42.597Z,14.17
2018-09-24T00:49:27.743Z,12.47
2018-09-24T00:52:06.458Z,13.23
2018-09-24T00:54:37.134Z,13.43
2018-09-24T00:57:11.303Z,14.07
2018-09-24T00:59:40.057Z,15.63
2018-09-24T01:02:11.890Z,16.37
2018-09-24T01:04:40.862Z,15.17
2018-09-24T01:07:28.885Z,12.60
2018-09-24T01:09:58.675Z,13.53
2018-09-24T01:12:28.256Z,11.60
2018-09-24T01:14:57.031Z,9.80
2018-09-24T01:17:29.031Z,9.87
2018-09-24T01:20:02.658Z,8.60
2018-09-24T01:22:36.478Z,9.07
2018-09-24T01:25:07.319Z,8.93
2018-09-24T01:27:46.420Z,10.00
2018-09-24T01:30:15.241Z,10.57
2018-09-24T01:32:55.725Z,12.43
2018-09-24T01:35:26.468Z,13.57
2018-09-24T01:37:57.130Z,13.40
2018-09-24T01:40:27.754Z,14.07
2018-09-24T01:42:56.446Z,12.77
2018-09-24T01:45:25.055Z,12.20
2018-09-24T01:47:59.953Z,11.40
2018-09-24T01:50:29.564Z,11.30
2018-09-24T01:53:04.930Z,11.67
2018-09-24T01:55:33.615Z,10.87
2018-09-24T01:58:05.426Z,11.83
2018-09-24T02:00:46.890Z,12.90
2018-09-24T02:03:25.222Z,13.37
2018-09-24T02:05:53.721Z,13.13
2018-09-24T02:08:22.317Z,14.60
2018-09-24T02:10:54.259Z,13.50
2018-09-24T02:13:22.955Z,13.67
2018-09-24T02:15:53.558Z,14.00
2018-09-24T02:18:22.174Z,14.00
2018-09-24T02:20:51.807Z,13.80
2018-09-24T02:23:30.175Z,14.13
2018-09-24T02:25:58.690Z,14.00
2018-09-24T02:28:29.343Z,14.30
2018-09-24T02:31:00.041Z,14.13
2018-09-24T02:33:29.744Z,14.60
2018-09-24T02:36:01.442Z,14.17
2018-09-24T02:38:37.622Z,13.70
2018-09-24T02:41:07.248Z,13.87
2018-09-24T02:43:36.811Z,13.17
2018-09-24T02:46:05.463Z,13.57
2018-09-24T02:48:35.026Z,14.60
2018-09-24T02:51:03.651Z,14.70
2018-09-24T02:53:42.188Z,14.60
2018-09-24T02:56:10.811Z,14.60
2018-09-24T02:58:43.495Z,13.63
2018-09-24T03:01:12.197Z,14.43
2018-09-24T03:03:40.907Z,15.40
2018-09-24T03:06:09.519Z,15.90
2018-09-24T03:08:41.323Z,17.30
2018-09-24T03:11:15.712Z,17.50
2018-09-24T03:13:50.175Z,17.80
2018-09-24T03:16:23.089Z,15.87
2018-09-24T03:18:59.704Z,18.27
2018-09-24T03:21:38.568Z,17.33
2018-09-24T03:24:14.201Z,15.90
2018-09-24T03:27:07.324Z,16.57
2018-09-24T03:29:42.500Z,16.03
2018-09-24T03:32:12.128Z,14.80
2018-09-24T03:34:42.892Z,15.70
2018-09-24T03:40:10.078Z,16.73
2018-09-24T03:42:38.747Z,16.27
2018-09-24T03:45:08.526Z,17.27
2018-09-24T03:50:35.116Z,16.27
2018-09-24T03:53:18.353Z,16.93
2018-09-24T03:55:49.067Z,15.67
2018-09-24T03:58:18.735Z,15.80
2018-09-24T04:00:48.563Z,15.50
2018-09-24T04:03:18.275Z,15.67
2018-09-24T04:05:52.457Z,17.53
2018-09-24T04:08:34.351Z,15.90
2018-09-24T04:11:15.827Z,15.93
2018-09-24T04:13:52.849Z,16.97
2018-09-24T04:19:28.149Z,16.10
2018-09-24T04:22:13.711Z,17.60
2018-09-24T04:27:40.764Z,16.43
2018-09-24T04:30:14.804Z,15.87
2018-09-24T04:32:53.472Z,15.43
2018-09-24T04:35:32.042Z,16.07
2018-09-24T04:38:05.771Z,18.47
2018-09-24T04:40:52.079Z,18.57
2018-09-24T04:43:25.960Z,17.23
2018-09-24T04:46:01.829Z,15.80
2018-09-24T04:48:36.669Z,16.70
2018-09-24T04:51:10.637Z,22.90
2018-09-24T04:53:46.206Z,18.03
2018-09-24T04:56:25.513Z,14.37
2018-09-24T04:58:59.502Z,13.43
2018-09-24T05:01:35.151Z,12.80
2018-09-24T05:04:14.064Z,13.53
2018-09-24T05:06:51.688Z,13.30
2018-09-24T05:09:32.364Z,13.07
2018-09-24T05:12:07.374Z,12.50
2018-09-24T05:14:46.703Z,12.47
2018-09-24T05:17:21.820Z,13.03
2018-09-24T05:19:55.707Z,12.07
2018-09-24T05:22:33.785Z,11.73
2018-09-24T05:25:11.896Z,12.10
2018-09-24T05:27:45.720Z,12.53
2018-09-24T05:30:20.728Z,11.10
2018-09-24T05:32:54.836Z,12.10
2018-09-24T05:35:28.736Z,13.00
2018-09-24T05:38:06.475Z,11.30
2018-09-24T05:40:40.450Z,11.00
2018-09-24T05:43:14.258Z,12.60
2018-09-24T05:45:53.812Z,12.20
2018-09-24T05:48:42.070Z,10.90
2018-09-24T05:51:15.913Z,9.83
2018-09-24T05:53:53.485Z,9.10
2018-09-24T05:56:32.876Z,10.00
2018-09-24T05:59:12.505Z,11.10
2018-09-24T06:01:46.355Z,10.40
2018-09-24T06:04:22.199Z,10.77
2018-09-24T06:07:02.224Z,10.03
2018-09-24T06:09:37.115Z,8.70
2018-09-24T06:12:13.059Z,9.47
2018-09-24T06:15:00.028Z,8.57
2018-09-24T06:17:34.891Z,9.03
2018-09-24T06:20:09.845Z,8.27
2018-09-24T06:22:44.740Z,8.17
2018-09-24T06:25:19.627Z,8.87
2018-09-24T06:27:54.517Z,8.50
2018-09-24T06:30:28.423Z,7.77
2018-09-24T06:33:09.299Z,8.30
2018-09-24T06:35:43.099Z,8.20
2018-09-24T06:38:19.147Z,7.40
2018-09-24T06:41:03.303Z,7.60
2018-09-24T06:43:39.100Z,7.07
2018-09-24T06:46:15.451Z,6.43
2018-09-24T06:48:53.563Z,7.93
2018-09-24T06:51:28.456Z,7.37
2018-09-24T06:54:06.668Z,7.60
2018-09-24T06:56:41.905Z,7.00
2018-09-24T06:59:25.957Z,7.70
2018-09-24T07:02:01.984Z,7.33
2018-09-24T07:04:35.903Z,7.73
2018-09-24T07:07:09.851Z,8.27
2018-09-24T07:09:44.937Z,16.70
2018-09-24T07:12:24.339Z,8.60
2018-09-24T07:14:59.170Z,6.60
2018-09-24T07:17:34.652Z,7.30
2018-09-24T07:20:08.531Z,6.43
2018-09-24T07:22:44.324Z,7.50
2018-09-24T07:25:18.311Z,6.40
2018-09-24T07:27:55.393Z,5.47
2018-09-24T07:30:39.380Z,5.30
2018-09-24T07:33:26.434Z,5.90
2018-09-24T07:36:03.780Z,5.13
2018-09-24T07:38:37.654Z,5.07
2018-09-24T07:44:00.756Z,7.90
2018-09-24T07:46:40.114Z,8.27
2018-09-24T07:49:14.978Z,4.90
2018-09-24T07:51:58.082Z,5.30
2018-09-24T07:54:31.941Z,6.03
2018-09-24T07:57:17.518Z,5.13
2018-09-24T07:59:52.355Z,5.13
2018-09-24T08:02:26.102Z,15.17
2018-09-24T08:05:00.969Z,5.17
2018-09-24T08:07:34.733Z,4.60
2018-09-24T08:10:08.585Z,4.37
2018-09-24T08:15:35.622Z,3.60
2018-09-24T08:18:12.981Z,3.70
2018-09-24T08:20:59.301Z,3.57
2018-09-24T08:23:38.514Z,4.63
2018-09-24T08:26:13.580Z,3.83
2018-09-24T08:28:49.562Z,3.60
2018-09-24T08:31:23.636Z,3.10
2018-09-24T08:36:53.086Z,3.67
2018-09-24T08:39:28.780Z,3.17
2018-09-24T08:42:04.276Z,3.20
2018-09-24T08:44:40.425Z,3.63
2018-09-24T08:47:15.570Z,3.23
2018-09-24T08:49:50.585Z,3.30
2018-09-24T08:52:25.460Z,3.10
2018-09-24T08:55:03.503Z,3.40
2018-09-24T08:57:37.758Z,3.27
2018-09-24T09:00:13.731Z,2.93
2018-09-24T09:02:47.792Z,3.10
2018-09-24T09:05:22.512Z,2.73
2018-09-24T09:07:56.239Z,3.37
2018-09-24T09:10:30.099Z,3.03
2018-09-24T09:13:04.139Z,2.90
2018-09-24T09:15:40.838Z,3.23
2018-09-24T09:18:16.647Z,3.07
2018-09-24T09:20:52.427Z,2.97
2018-09-24T09:23:34.865Z,3.40
2018-09-24T09:26:17.396Z,2.77
2018-09-24T09:28:53.499Z,2.67
2018-09-24T09:31:29.324Z,2.60
2018-09-24T09:34:11.988Z,2.53
2018-09-24T09:36:48.084Z,2.23
2018-09-24T09:39:26.867Z,2.13
2018-09-24T09:42:11.814Z,2.43
2018-09-24T09:45:02.347Z,2.03
2018-09-24T09:47:40.908Z,2.10
2018-09-24T09:50:23.887Z,2.17
2018-09-24T09:53:04.639Z,2.17
2018-09-24T09:55:40.226Z,1.70
2018-09-24T09:58:17.467Z,1.87
2018-09-24T10:00:58.962Z,1.43
2018-09-24T10:03:37.158Z,1.80
2018-09-24T10:06:24.601Z,1.70
2018-09-24T10:08:59.762Z,1.83
2018-09-24T10:11:37.099Z,1.80
2018-09-24T10:14:13.319Z,1.80
2018-09-24T10:16:53.436Z,1.90
2018-09-24T10:19:30.415Z,1.30
2018-09-24T10:22:05.891Z,1.40
2018-09-24T10:24:41.820Z,1.50
2018-09-24T10:29:59.544Z,1.53
2018-09-24T10:32:39.303Z,1.50
2018-09-24T10:35:17.410Z,1.40
2018-09-24T10:37:53.464Z,1.30
2018-09-24T10:40:28.881Z,1.50
2018-09-24T10:43:07.577Z,2.80
2018-09-24T10:45:44.102Z,1.23
2018-09-24T10:48:22.853Z,1.50
2018-09-24T10:50:59.132Z,1.90
2018-09-24T10:53:36.179Z,1.40
2018-09-24T10:56:12.698Z,1.50
2018-09-24T10:58:48.630Z,1.30
2018-09-24T11:01:24.973Z,1.40
2018-09-24T11:06:55.362Z,1.03
2018-09-24T11:09:31.172Z,1.50
2018-09-24T11:12:16.052Z,1.37
2018-09-24T11:14:50.806Z,1.40
2018-09-24T11:17:35.664Z,1.40
2018-09-24T11:20:11.395Z,1.60
2018-09-24T11:22:47.352Z,1.40
2018-09-24T11:25:21.357Z,1.20
2018-09-24T11:28:00.594Z,1.40
2018-09-24T11:30:36.303Z,1.50
2018-09-24T11:33:11.177Z,1.50
2018-09-24T11:35:46.884Z,1.13
2018-09-24T11:38:20.621Z,1.47
2018-09-24T11:41:01.146Z,1.50
2018-09-24T11:43:36.011Z,1.67
2018-09-24T11:46:09.860Z,1.47
2018-09-24T11:48:44.456Z,1.10
2018-09-24T11:51:19.407Z,1.47
2018-09-24T11:53:56.378Z,1.10
2018-09-24T11:56:30.316Z,1.20
2018-09-24T11:59:05.103Z,1.50
2018-09-24T12:01:42.622Z,1.60
2018-09-24T12:04:16.446Z,1.93
2018-09-24T12:06:52.163Z,1.50
2018-09-24T12:09:26.047Z,1.70
2018-09-24T12:12:00.956Z,1.40
2018-09-24T12:14:39.998Z,1.20
2018-09-24T12:17:16.055Z,1.10
2018-09-24T12:19:50.876Z,13.83
2018-09-24T12:22:25.670Z,1.10
2018-09-24T12:25:09.379Z,1.50
2018-09-24T12:27:48.673Z,1.10
2018-09-24T12:30:24.568Z,1.20
2018-09-24T12:33:00.329Z,1.30
2018-09-24T12:35:42.154Z,1.47
2018-09-24T12:38:17.110Z,1.47
2018-09-24T12:40:52.991Z,1.30
2018-09-24T12:43:28.789Z,1.30
2018-09-24T12:46:02.635Z,1.47
2018-09-24T12:48:37.441Z,1.57
2018-09-24T12:51:11.711Z,1.77
2018-09-24T12:53:45.495Z,1.50
2018-09-24T12:56:20.263Z,1.60
2018-09-24T12:58:54.931Z,1.67
2018-09-24T13:01:29.567Z,1.50
2018-09-24T13:04:03.300Z,1.40
2018-09-24T13:06:37.054Z,1.33
2018-09-24T13:09:12.407Z,1.63
2018-09-24T13:11:50.298Z,1.10
2018-09-24T13:14:27.293Z,1.20
2018-09-24T13:17:03.219Z,1.30
2018-09-24T13:19:37.048Z,1.20
2018-09-24T13:22:12.051Z,1.60
2018-09-24T13:24:46.155Z,1.37
2018-09-24T13:27:21.235Z,1.10
2018-09-24T13:29:57.048Z,1.07
2018-09-24T13:32:31.874Z,1.43
2018-09-24T13:35:05.723Z,1.37
2018-09-24T13:37:41.615Z,5.70
2018-09-24T13:40:21.642Z,1.30
2018-09-24T13:43:06.956Z,1.10
2018-09-24T13:45:51.099Z,1.50
2018-09-24T13:48:31.623Z,1.50
2018-09-24T13:51:12.635Z,1.47
2018-09-24T13:53:52.977Z,1.70
2018-09-24T13:56:27.928Z,1.77
2018-09-24T13:59:06.075Z,1.40
2018-09-24T14:01:40.700Z,1.80
2018-09-24T14:04:16.012Z,1.70
2018-09-24T14:09:36.523Z,1.67
2018-09-24T14:12:12.354Z,1.60
2018-09-24T14:14:47.327Z,1.73
2018-09-24T14:17:22.337Z,1.97
2018-09-24T14:20:06.054Z,1.83
2018-09-24T14:22:47.712Z,2.10
2018-09-24T14:25:22.609Z,1.20
2018-09-24T14:27:56.307Z,1.40
2018-09-24T14:30:30.308Z,1.70
2018-09-24T14:33:04.242Z,1.63
2018-09-24T14:35:45.337Z,1.90
2018-09-24T14:38:20.358Z,1.60
2018-09-24T14:40:59.582Z,2.70
2018-09-24T14:43:33.643Z,1.63
2018-09-24T14:46:09.602Z,1.70
2018-09-24T14:48:44.633Z,1.50
2018-09-24T14:51:21.848Z,1.63
2018-09-24T14:53:56.797Z,1.63
2018-09-24T14:56:33.310Z,1.57
2018-09-24T14:59:09.301Z,1.47
2018-09-24T15:01:45.871Z,1.97
2018-09-24T15:04:20.192Z,1.50
2018-09-24T15:06:57.182Z,1.43
2018-09-24T15:09:32.203Z,1.57
2018-09-24T15:12:11.383Z,1.50
2018-09-24T15:14:46.102Z,1.50
2018-09-24T15:17:21.219Z,1.47
2018-09-24T15:20:03.810Z,1.70
2018-09-24T15:22:38.363Z,1.57
2018-09-24T15:25:13.262Z,1.70
2018-09-24T15:27:49.964Z,1.70
2018-09-24T15:30:23.765Z,2.07
2018-09-24T15:35:49.547Z,1.43
2018-09-24T15:38:27.437Z,1.20
2018-09-24T15:41:09.416Z,2.43
2018-09-24T15:46:37.352Z,1.43
2018-09-24T15:49:15.260Z,1.40
2018-09-24T15:52:03.373Z,1.80
2018-09-24T15:54:38.955Z,1.60
2018-09-24T15:57:12.920Z,1.67
2018-09-24T15:59:47.104Z,1.67
2018-09-24T16:02:21.318Z,1.43
2018-09-24T16:05:00.774Z,1.33
2018-09-24T16:07:34.856Z,1.73
2018-09-24T16:10:09.048Z,1.53
2018-09-24T16:12:43.015Z,1.50
2018-09-24T16:15:18.706Z,1.60
2018-09-24T16:18:00.169Z,1.87
2018-09-24T16:20:35.896Z,2.23
2018-09-24T16:23:09.898Z,1.60
2018-09-24T16:25:44.649Z,1.80
2018-09-24T16:28:19.539Z,1.93
2018-09-24T16:30:54.955Z,1.80
2018-09-24T16:33:29.872Z,1.43
2018-09-24T16:36:03.819Z,1.70
2018-09-24T16:38:38.677Z,2.70
2018-09-24T16:41:13.548Z,2.53
2018-09-24T16:43:47.816Z,2.00
2018-09-24T16:46:27.615Z,3.50
2018-09-24T16:49:05.574Z,1.87
2018-09-24T16:51:43.134Z,1.83
2018-09-24T16:54:17.948Z,2.57
2018-09-24T16:56:52.795Z,1.80
2018-09-24T16:59:27.678Z,1.80
2018-09-24T17:02:02.513Z,2.07
2018-09-24T17:04:38.292Z,1.73
2018-09-24T17:07:13.127Z,1.90
2018-09-24T17:09:46.980Z,2.00
2018-09-24T17:12:20.711Z,2.10
2018-09-24T17:14:56.563Z,2.00
2018-09-24T17:17:42.443Z,1.80
2018-09-24T17:20:16.307Z,1.80
2018-09-24T17:22:50.226Z,1.93
2018-09-24T17:25:25.955Z,8.87
2018-09-24T17:28:01.283Z,2.33
2018-09-24T17:30:35.368Z,2.30
2018-09-24T17:33:12.996Z,2.30
2018-09-24T17:35:51.426Z,2.20
2018-09-24T17:38:28.805Z,2.60
2018-09-24T17:41:03.927Z,2.13
2018-09-24T17:43:37.712Z,1.70
2018-09-24T17:46:11.685Z,2.30
2018-09-24T17:48:45.578Z,2.10
2018-09-24T17:51:20.493Z,2.13
2018-09-24T17:53:55.369Z,2.20
2018-09-24T17:56:31.240Z,3.30
2018-09-24T17:59:04.910Z,1.73
2018-09-24T18:01:44.066Z,2.23
2018-09-24T18:04:25.384Z,1.83
2018-09-24T18:07:01.265Z,1.90
2018-09-24T18:09:35.083Z,2.20
2018-09-24T18:12:09.866Z,2.53
2018-09-24T18:14:43.555Z,2.00
2018-09-24T18:17:26.771Z,2.67
2018-09-24T18:20:00.969Z,2.07
2018-09-24T18:22:41.890Z,2.20
2018-09-24T18:25:15.900Z,2.23
2018-09-24T18:27:50.872Z,1.67
2018-09-24T18:30:24.963Z,2.37
2018-09-24T18:33:09.036Z,2.17
2018-09-24T18:35:43.278Z,2.10
2018-09-24T18:38:17.285Z,2.10
2018-09-24T18:40:53.400Z,2.10
2018-09-24T18:43:38.371Z,2.20
2018-09-24T18:46:12.829Z,2.20
2018-09-24T18:48:47.485Z,2.97
2018-09-24T18:51:32.999Z,2.33
2018-09-24T18:54:06.796Z,2.50
2018-09-24T18:56:44.571Z,2.20
2018-09-24T18:59:19.390Z,2.40
2018-09-24T19:02:09.045Z,1.90
2018-09-24T19:04:42.883Z,2.53
2018-09-24T19:07:16.604Z,2.00
2018-09-24T19:10:05.419Z,1.97
2018-09-24T19:12:41.376Z,2.20
2018-09-24T19:15:16.276Z,2.57
2018-09-24T19:17:51.156Z,2.37
2018-09-24T19:20:37.763Z,2.40
2018-09-24T19:23:13.561Z,2.47
2018-09-24T19:25:48.017Z,2.10
2018-09-24T19:28:21.884Z,2.27
2018-09-24T19:30:55.895Z,2.57
2018-09-24T19:33:30.749Z,2.60
2018-09-24T19:36:05.739Z,2.53
2018-09-24T19:38:41.692Z,2.13
2018-09-24T19:41:28.844Z,2.50
2018-09-24T19:44:03.781Z,2.67
2018-09-24T19:46:37.571Z,2.50
2018-09-24T19:49:12.513Z,2.67
2018-09-24T19:51:46.592Z,2.57
2018-09-24T19:54:21.619Z,2.63
2018-09-24T19:56:56.714Z,2.00
2018-09-24T19:59:35.520Z,2.63
2018-09-24T20:02:09.544Z,2.17
2018-09-24T20:04:45.700Z,2.30
2018-09-24T20:07:21.835Z,2.40
2018-09-24T20:10:02.954Z,2.50
2018-09-24T20:12:37.852Z,2.30
2018-09-24T20:15:13.377Z,2.43
2018-09-24T20:17:48.463Z,2.07
2018-09-24T20:20:36.206Z,2.60
2018-09-24T20:23:15.224Z,2.67
2018-09-24T20:25:54.389Z,2.37
2018-09-24T20:28:39.609Z,2.77
2018-09-24T20:31:13.696Z,2.90
2018-09-24T20:33:48.735Z,3.03
2018-09-24T20:36:35.451Z,3.50
2018-09-24T20:39:10.763Z,2.67
2018-09-24T20:41:46.258Z,3.33
2018-09-24T20:44:21.191Z,3.70
2018-09-24T20:46:57.882Z,3.40
2018-09-24T20:49:36.557Z,3.33
2018-09-24T20:52:11.618Z,3.30
2018-09-24T20:54:46.961Z,3.40
2018-09-24T20:57:23.707Z,3.47
2018-09-24T21:00:09.709Z,2.97
2018-09-24T21:02:47.576Z,2.50
2018-09-24T21:05:21.489Z,2.70
2018-09-24T21:07:57.397Z,3.40
2018-09-24T21:10:38.436Z,3.30
2018-09-24T21:13:12.591Z,3.30
2018-09-24T21:15:47.330Z,2.93
2018-09-24T21:18:29.045Z,3.00
2018-09-24T21:21:03.974Z,3.40
2018-09-24T21:23:37.878Z,3.00
2018-09-24T21:26:13.254Z,3.30
2018-09-24T21:28:49.444Z,3.10
2018-09-24T21:31:25.418Z,3.03
2018-09-24T21:34:00.232Z,3.10
2018-09-24T21:36:35.107Z,3.33
2018-09-24T21:39:10.965Z,2.83
2018-09-24T21:41:47.077Z,3.10
2018-09-24T21:44:22.849Z,3.30
2018-09-24T21:46:56.782Z,3.37
2018-09-24T21:49:31.575Z,2.83
2018-09-24T21:52:06.408Z,3.23
2018-09-24T21:54:41.245Z,2.83
2018-09-24T21:57:19.276Z,2.70
2018-09-24T22:00:03.432Z,3.20
2018-09-24T22:02:37.280Z,3.40
2018-09-24T22:05:15.399Z,3.40
2018-09-24T22:07:55.246Z,4.23
2018-09-24T22:10:34.011Z,4.03
2018-09-24T22:13:08.239Z,4.23
2018-09-24T22:15:43.401Z,4.63
2018-09-24T22:18:19.362Z,3.43
2018-09-24T22:20:53.440Z,3.60
2018-09-24T22:23:27.332Z,3.77
2018-09-24T22:26:01.223Z,5.03
2018-09-24T22:28:36.094Z,5.20
2018-09-24T22:31:10.207Z,4.80
2018-09-24T22:33:44.912Z,5.10
2018-09-24T22:36:18.889Z,6.30
2018-09-24T22:38:52.807Z,5.30
2018-09-24T22:41:26.752Z,4.73
2018-09-24T22:44:13.159Z,4.93
2018-09-24T22:46:50.315Z,5.60
2018-09-24T22:49:27.876Z,4.97
2018-09-24T22:52:14.767Z,6.10
2018-09-24T22:54:50.628Z,5.20
2018-09-24T22:57:25.407Z,5.70
2018-09-24T22:59:59.411Z,5.30
2018-09-24T23:02:33.325Z,4.97
2018-09-24T23:05:11.984Z,4.70
2018-09-24T23:07:51.233Z,4.60
2018-09-24T23:10:26.097Z,4.67
2018-09-24T23:13:00.891Z,4.23
2018-09-24T23:15:34.791Z,3.97
2018-09-24T23:18:09.616Z,4.60
2018-09-24T23:20:47.995Z,4.60
2018-09-24T23:23:27.404Z,5.23
2018-09-24T23:26:05.992Z,4.40
2018-09-24T23:28:40.968Z,4.87
2018-09-24T23:31:15.018Z,4.70
2018-09-24T23:33:53.746Z,4.67
2018-09-24T23:36:28.575Z,5.43
2018-09-24T23:39:02.434Z,4.17
2018-09-24T23:41:37.376Z,4.60
2018-09-24T23:44:13.392Z,4.37
2018-09-24T23:46:47.357Z,4.50
2018-09-24T23:49:21.211Z,4.67
2018-09-24T23:51:55.034Z,4.87
2018-09-24T23:54:32.783Z,5.53
2018-09-24T23:57:11.909Z,4.87
2018-09-24T23:59:45.844Z,4.77
